»·PEaware :: N439LP KTOA-KPSP

N439LP :: KTOA-KPSP

FLIGHT INFORMATION

Flight Status: Arrived
Operator: Privately registered:
United States
More flights under this callsign
Pilot: Raj G. (18179)
Aircraft: CESSNA 172 SKYHAWK
(C172)
More flights by this aircraft type
Origin: KTOA Zamperini
United States
Destination: KPSP Palm Springs Intl
United States
More flights between these airports :: More routes between these airports
Route: KLGB KFUL KAJO KRAL KBNG
File this flight plan on PilotEdge
Remarks:
Altitude:
(Current/Filed)
5,500ft
Speed:
(Current/Filed)
110kts
Departed: 27-Dec-20 09:17 PM
Arrived: 27-Dec-20 10:11 PM
Distance/Time
Traveled:
6795nm/0:54
Distance/Time
To Go:
Arrived

Flight Plot

Page will automatically refresh every two minutes.

Flight plan parsing failed; only flown route is shown


Map Options




Map Legend


Flown Route
Filed Route
Departure Airport
Arrival Airport
Navaid (VOR, NDB)
Fix

Horizontal Profiles

Position Reports

Time Latitude Longitude Heading Altitude Ground
Speed
27-Dec-20 21:09 33.802981 -118.343444 220 106ft 0kts
27-Dec-20 21:10 33.802981 -118.343444 220 106ft 0kts
27-Dec-20 21:11 33.802982 -118.343444 220 106ft 0kts
27-Dec-20 21:12 33.802981 -118.343444 220 106ft 0kts
27-Dec-20 21:13 33.802421 -118.341122 128 99ft 16kts
27-Dec-20 21:14 33.799802 -118.336824 43 104ft 2kts
27-Dec-20 21:15 33.799815 -118.336809 43 104ft 0kts
27-Dec-20 21:16 33.801509 -118.338436 307 101ft 52kts
27-Dec-20 21:17 33.816138 -118.349172 97 764ft 86kts
27-Dec-20 21:18 33.816821 -118.315990 66 1330ft 104kts
27-Dec-20 21:19 33.828769 -118.286469 65 2197ft 85kts
27-Dec-20 21:20 33.834296 -118.258258 81 2950ft 85kts
27-Dec-20 21:21 33.836053 -118.228993 89 3478ft 106kts
27-Dec-20 21:22 33.837129 -118.193056 86 3579ft 107kts
27-Dec-20 21:23 33.838830 -118.156554 85 3598ft 110kts
27-Dec-20 21:24 33.844889 -118.123361 77 3598ft 110kts
27-Dec-20 21:25 33.851296 -118.088982 76 3599ft 110kts
27-Dec-20 21:26 33.858069 -118.053337 77 3598ft 110kts
27-Dec-20 21:28 33.864810 -118.017872 77 3598ft 110kts
27-Dec-20 21:29 33.871758 -117.981405 77 3601ft 119kts
27-Dec-20 21:30 33.877071 -117.946619 80 4226ft 92kts
27-Dec-20 21:31 33.879053 -117.916239 78 4875ft 92kts
27-Dec-20 21:32 33.884700 -117.886431 77 5460ft 96kts
27-Dec-20 21:33 33.889707 -117.852543 70 5547ft 110kts
27-Dec-20 21:34 33.896734 -117.815589 80 5502ft 113kts
27-Dec-20 21:35 33.902440 -117.778216 80 5500ft 113kts
27-Dec-20 21:36 33.908000 -117.740978 79 5500ft 113kts
27-Dec-20 21:37 33.913376 -117.704893 79 5498ft 112kts
27-Dec-20 21:38 33.918938 -117.667587 79 5499ft 113kts
27-Dec-20 21:39 33.924380 -117.631013 79 5500ft 113kts
27-Dec-20 21:40 33.929874 -117.593990 79 5499ft 113kts
27-Dec-20 21:41 33.934988 -117.559463 79 5500ft 113kts
27-Dec-20 21:42 33.940501 -117.522171 79 5500ft 113kts
27-Dec-20 21:43 33.946011 -117.484816 79 5498ft 113kts
27-Dec-20 21:43 33.950563 -117.453888 79 5500ft 113kts
27-Dec-20 21:45 33.949914 -117.409779 92 5500ft 113kts
27-Dec-20 21:46 33.948248 -117.372115 93 5500ft 112kts
27-Dec-20 21:46 33.946794 -117.340696 93 5499ft 112kts
27-Dec-20 21:47 33.944999 -117.303226 93 5499ft 112kts
27-Dec-20 21:49 33.942887 -117.259166 93 5498ft 112kts
27-Dec-20 21:49 33.941380 -117.227936 93 5500ft 112kts
27-Dec-20 21:50 33.939549 -117.190150 93 5499ft 112kts
27-Dec-20 21:51 33.937718 -117.152723 93 5500ft 111kts
27-Dec-20 21:52 33.935859 -117.114891 93 5503ft 119kts
27-Dec-20 21:53 33.933786 -117.073001 93 5496ft 127kts
27-Dec-20 21:54 33.931648 -117.030104 93 5498ft 128kts
27-Dec-20 21:55 33.929508 -116.987377 93 5498ft 128kts
27-Dec-20 21:56 33.927342 -116.944459 93 5499ft 128kts
27-Dec-20 21:57 33.925212 -116.901654 93 5500ft 128kts
27-Dec-20 21:58 33.924128 -116.858772 90 5500ft 128kts
27-Dec-20 21:59 33.923824 -116.815744 90 5501ft 128kts
27-Dec-20 22:00 33.924729 -116.773094 87 5503ft 128kts
27-Dec-20 22:01 33.925524 -116.731408 91 5193ft 122kts
27-Dec-20 22:02 33.923508 -116.690445 93 4508ft 122kts
27-Dec-20 22:03 33.919892 -116.649757 99 3825ft 121kts
27-Dec-20 22:04 33.910748 -116.611107 111 3222ft 119kts
27-Dec-20 22:05 33.898491 -116.574151 118 2768ft 120kts
27-Dec-20 22:06 33.879408 -116.540988 132 2397ft 125kts
27-Dec-20 22:07 33.856092 -116.513154 138 1493ft 115kts
27-Dec-20 22:08 33.831437 -116.489413 148 968ft 111kts
27-Dec-20 22:09 33.819323 -116.495537 317 570ft 73kts
27-Dec-20 22:10 33.829899 -116.504629 44 431ft 12kts
27-Dec-20 22:11 33.829573 -116.503707 145 430ft 15kts
27-Dec-20 22:12 33.824817 -116.499376 116 408ft 15kts
27-Dec-20 22:13 33.822304 -116.496990 139 402ft 7kts
27-Dec-20 22:14 0.000408 0.013975 359 3ft 0kts

Navigation Log

Ident Type
Flight plan parsing failed, navigation log unavailable